sensor_id;sensor_type;location;lat;lon;timestamp;P1;durP1;ratioP1;P2;durP2;ratioP2
65375;SDS011;51976;47.332;9.404;2024-03-22T00:01:46;3.53;;;2.03;;
65375;SDS011;51976;47.332;9.404;2024-03-22T00:04:14;3.20;;;2.22;;
65375;SDS011;51976;47.332;9.404;2024-03-22T00:06:43;2.22;;;1.67;;
65375;SDS011;51976;47.332;9.404;2024-03-22T00:09:09;4.00;;;1.98;;
65375;SDS011;51976;47.332;9.404;2024-03-22T00:11:35;4.53;;;2.08;;
65375;SDS011;51976;47.332;9.404;2024-03-22T00:14:01;3.03;;;1.92;;
65375;SDS011;51976;47.332;9.404;2024-03-22T00:16:27;3.95;;;1.92;;
65375;SDS011;51976;47.332;9.404;2024-03-22T00:18:52;7.32;;;2.35;;
65375;SDS011;51976;47.332;9.404;2024-03-22T00:21:18;2.83;;;1.88;;
65375;SDS011;51976;47.332;9.404;2024-03-22T00:23:44;3.10;;;2.40;;
65375;SDS011;51976;47.332;9.404;2024-03-22T00:26:10;6.70;;;2.25;;
65375;SDS011;51976;47.332;9.404;2024-03-22T00:28:35;5.18;;;2.30;;
65375;SDS011;51976;47.332;9.404;2024-03-22T00:31:01;5.95;;;2.28;;
65375;SDS011;51976;47.332;9.404;2024-03-22T00:33:26;4.03;;;2.10;;
65375;SDS011;51976;47.332;9.404;2024-03-22T00:35:51;2.70;;;1.90;;
65375;SDS011;51976;47.332;9.404;2024-03-22T00:38:17;4.40;;;1.90;;
65375;SDS011;51976;47.332;9.404;2024-03-22T00:40:42;4.72;;;1.80;;
65375;SDS011;51976;47.332;9.404;2024-03-22T00:43:07;2.42;;;1.70;;
65375;SDS011;51976;47.332;9.404;2024-03-22T00:45:33;4.43;;;1.60;;
65375;SDS011;51976;47.332;9.404;2024-03-22T00:47:58;2.67;;;1.65;;
65375;SDS011;51976;47.332;9.404;2024-03-22T00:50:24;2.35;;;1.63;;
65375;SDS011;51976;47.332;9.404;2024-03-22T00:52:52;7.07;;;1.70;;
65375;SDS011;51976;47.332;9.404;2024-03-22T00:55:19;5.95;;;1.88;;
65375;SDS011;51976;47.332;9.404;2024-03-22T00:57:44;4.00;;;2.50;;
65375;SDS011;51976;47.332;9.404;2024-03-22T01:00:10;4.35;;;2.20;;
65375;SDS011;51976;47.332;9.404;2024-03-22T01:02:36;3.17;;;2.13;;
65375;SDS011;51976;47.332;9.404;2024-03-22T01:05:02;3.45;;;2.10;;
65375;SDS011;51976;47.332;9.404;2024-03-22T01:07:27;3.22;;;1.95;;
65375;SDS011;51976;47.332;9.404;2024-03-22T01:09:53;5.97;;;2.47;;
65375;SDS011;51976;47.332;9.404;2024-03-22T01:12:18;5.68;;;2.22;;
65375;SDS011;51976;47.332;9.404;2024-03-22T01:14:43;3.65;;;2.00;;
65375;SDS011;51976;47.332;9.404;2024-03-22T01:17:09;5.05;;;2.33;;
65375;SDS011;51976;47.332;9.404;2024-03-22T01:19:34;2.95;;;1.73;;
65375;SDS011;51976;47.332;9.404;2024-03-22T01:21:59;4.88;;;2.05;;
65375;SDS011;51976;47.332;9.404;2024-03-22T01:24:25;3.75;;;1.60;;
65375;SDS011;51976;47.332;9.404;2024-03-22T01:26:50;3.13;;;1.80;;
65375;SDS011;51976;47.332;9.404;2024-03-22T01:29:16;3.38;;;1.63;;
65375;SDS011;51976;47.332;9.404;2024-03-22T01:31:41;3.13;;;1.70;;
65375;SDS011;51976;47.332;9.404;2024-03-22T01:34:07;3.63;;;2.00;;
65375;SDS011;51976;47.332;9.404;2024-03-22T01:36:32;3.78;;;1.67;;
65375;SDS011;51976;47.332;9.404;2024-03-22T01:38:57;2.75;;;1.48;;
65375;SDS011;51976;47.332;9.404;2024-03-22T01:41:23;2.67;;;1.70;;
65375;SDS011;51976;47.332;9.404;2024-03-22T01:43:49;3.10;;;1.55;;
65375;SDS011;51976;47.332;9.404;2024-03-22T01:46:14;3.63;;;1.80;;
65375;SDS011;51976;47.332;9.404;2024-03-22T01:48:40;2.25;;;1.55;;
65375;SDS011;51976;47.332;9.404;2024-03-22T01:51:05;3.05;;;1.80;;
65375;SDS011;51976;47.332;9.404;2024-03-22T01:53:31;2.38;;;1.70;;
65375;SDS011;51976;47.332;9.404;2024-03-22T01:55:58;6.38;;;1.70;;
65375;SDS011;51976;47.332;9.404;2024-03-22T01:58:23;4.82;;;1.88;;
65375;SDS011;51976;47.332;9.404;2024-03-22T02:00:49;2.97;;;1.77;;
65375;SDS011;51976;47.332;9.404;2024-03-22T02:03:15;2.35;;;1.67;;
65375;SDS011;51976;47.332;9.404;2024-03-22T02:05:40;5.13;;;1.63;;
65375;SDS011;51976;47.332;9.404;2024-03-22T02:08:06;4.53;;;1.50;;
65375;SDS011;51976;47.332;9.404;2024-03-22T02:10:31;3.70;;;1.88;;
65375;SDS011;51976;47.332;9.404;2024-03-22T02:12:57;3.85;;;1.90;;
65375;SDS011;51976;47.332;9.404;2024-03-22T02:15:22;2.38;;;1.70;;
65375;SDS011;51976;47.332;9.404;2024-03-22T02:17:48;2.60;;;1.40;;
65375;SDS011;51976;47.332;9.404;2024-03-22T02:20:13;2.28;;;1.60;;
65375;SDS011;51976;47.332;9.404;2024-03-22T02:22:38;2.65;;;1.60;;
65375;SDS011;51976;47.332;9.404;2024-03-22T02:25:04;6.40;;;1.65;;
65375;SDS011;51976;47.332;9.404;2024-03-22T02:27:29;2.72;;;1.70;;
65375;SDS011;51976;47.332;9.404;2024-03-22T02:29:55;3.22;;;1.65;;
65375;SDS011;51976;47.332;9.404;2024-03-22T02:32:20;4.18;;;1.90;;
65375;SDS011;51976;47.332;9.404;2024-03-22T02:34:45;4.15;;;1.77;;
65375;SDS011;51976;47.332;9.404;2024-03-22T02:37:11;2.97;;;1.60;;
65375;SDS011;51976;47.332;9.404;2024-03-22T02:39:36;4.75;;;1.70;;
65375;SDS011;51976;47.332;9.404;2024-03-22T02:42:02;3.30;;;1.60;;
65375;SDS011;51976;47.332;9.404;2024-03-22T02:44:27;3.60;;;1.83;;
65375;SDS011;51976;47.332;9.404;2024-03-22T02:46:53;2.10;;;1.50;;
65375;SDS011;51976;47.332;9.404;2024-03-22T02:49:18;2.75;;;1.70;;
65375;SDS011;51976;47.332;9.404;2024-03-22T02:51:43;3.35;;;2.00;;
65375;SDS011;51976;47.332;9.404;2024-03-22T02:54:09;3.35;;;1.80;;
65375;SDS011;51976;47.332;9.404;2024-03-22T02:56:34;3.80;;;1.60;;
65375;SDS011;51976;47.332;9.404;2024-03-22T02:58:59;2.75;;;1.80;;
65375;SDS011;51976;47.332;9.404;2024-03-22T03:01:25;2.60;;;1.55;;
65375;SDS011;51976;47.332;9.404;2024-03-22T03:03:50;6.95;;;2.17;;
65375;SDS011;51976;47.332;9.404;2024-03-22T03:06:15;2.17;;;1.42;;
65375;SDS011;51976;47.332;9.404;2024-03-22T03:08:43;4.10;;;1.75;;
65375;SDS011;51976;47.332;9.404;2024-03-22T03:11:08;3.20;;;1.50;;
65375;SDS011;51976;47.332;9.404;2024-03-22T03:13:34;2.78;;;1.52;;
65375;SDS011;51976;47.332;9.404;2024-03-22T03:15:59;4.45;;;1.83;;
65375;SDS011;51976;47.332;9.404;2024-03-22T03:18:24;2.05;;;1.58;;
65375;SDS011;51976;47.332;9.404;2024-03-22T03:20:50;2.25;;;1.42;;
65375;SDS011;51976;47.332;9.404;2024-03-22T03:23:15;2.17;;;1.50;;
65375;SDS011;51976;47.332;9.404;2024-03-22T03:25:41;5.03;;;1.90;;
65375;SDS011;51976;47.332;9.404;2024-03-22T03:28:06;4.57;;;1.50;;
65375;SDS011;51976;47.332;9.404;2024-03-22T03:30:32;3.38;;;1.85;;
65375;SDS011;51976;47.332;9.404;2024-03-22T03:33:00;2.83;;;1.42;;
65375;SDS011;51976;47.332;9.404;2024-03-22T03:35:26;3.42;;;1.80;;
65375;SDS011;51976;47.332;9.404;2024-03-22T03:37:52;4.00;;;1.48;;
65375;SDS011;51976;47.332;9.404;2024-03-22T03:40:17;3.13;;;1.60;;
65375;SDS011;51976;47.332;9.404;2024-03-22T03:42:43;6.05;;;2.17;;
65375;SDS011;51976;47.332;9.404;2024-03-22T03:45:08;2.60;;;1.80;;
65375;SDS011;51976;47.332;9.404;2024-03-22T03:47:34;3.15;;;1.50;;
65375;SDS011;51976;47.332;9.404;2024-03-22T03:49:59;6.07;;;2.00;;
65375;SDS011;51976;47.332;9.404;2024-03-22T03:52:24;3.75;;;2.05;;
65375;SDS011;51976;47.332;9.404;2024-03-22T03:54:50;1.88;;;1.27;;
65375;SDS011;51976;47.332;9.404;2024-03-22T03:57:15;3.00;;;1.80;;
65375;SDS011;51976;47.332;9.404;2024-03-22T03:59:41;3.38;;;1.92;;
65375;SDS011;51976;47.332;9.404;2024-03-22T04:02:06;3.95;;;1.92;;
65375;SDS011;51976;47.332;9.404;2024-03-22T04:04:31;3.38;;;1.83;;
65375;SDS011;51976;47.332;9.404;2024-03-22T04:06:57;2.80;;;1.80;;
65375;SDS011;51976;47.332;9.404;2024-03-22T04:09:22;3.22;;;1.45;;
65375;SDS011;51976;47.332;9.404;2024-03-22T04:11:48;2.90;;;1.85;;
65375;SDS011;51976;47.332;9.404;2024-03-22T04:14:13;1.80;;;1.30;;
65375;SDS011;51976;47.332;9.404;2024-03-22T04:16:39;2.60;;;1.73;;
65375;SDS011;51976;47.332;9.404;2024-03-22T04:19:04;2.50;;;1.50;;
65375;SDS011;51976;47.332;9.404;2024-03-22T04:21:29;3.55;;;1.52;;
65375;SDS011;51976;47.332;9.404;2024-03-22T04:23:55;2.88;;;1.90;;
65375;SDS011;51976;47.332;9.404;2024-03-22T04:26:20;5.57;;;2.50;;
65375;SDS011;51976;47.332;9.404;2024-03-22T04:28:46;3.63;;;1.77;;
65375;SDS011;51976;47.332;9.404;2024-03-22T04:31:11;8.98;;;2.20;;
65375;SDS011;51976;47.332;9.404;2024-03-22T04:33:37;2.60;;;2.00;;
65375;SDS011;51976;47.332;9.404;2024-03-22T04:36:03;4.07;;;2.28;;
65375;SDS011;51976;47.332;9.404;2024-03-22T04:38:30;3.17;;;2.15;;
65375;SDS011;51976;47.332;9.404;2024-03-22T04:40:56;6.90;;;2.72;;
65375;SDS011;51976;47.332;9.404;2024-03-22T04:43:22;4.97;;;2.60;;
65375;SDS011;51976;47.332;9.404;2024-03-22T04:45:49;3.95;;;2.58;;
65375;SDS011;51976;47.332;9.404;2024-03-22T04:48:19;2.95;;;2.10;;
65375;SDS011;51976;47.332;9.404;2024-03-22T04:50:46;3.55;;;2.33;;
65375;SDS011;51976;47.332;9.404;2024-03-22T04:53:13;5.60;;;2.92;;
65375;SDS011;51976;47.332;9.404;2024-03-22T04:55:38;4.47;;;2.75;;
65375;SDS011;51976;47.332;9.404;2024-03-22T04:58:09;5.20;;;2.58;;
65375;SDS011;51976;47.332;9.404;2024-03-22T05:00:35;5.80;;;2.33;;
65375;SDS011;51976;47.332;9.404;2024-03-22T05:03:01;4.55;;;2.28;;
65375;SDS011;51976;47.332;9.404;2024-03-22T05:05:26;2.92;;;1.98;;
65375;SDS011;51976;47.332;9.404;2024-03-22T05:07:51;3.67;;;1.83;;
65375;SDS011;51976;47.332;9.404;2024-03-22T05:10:17;5.38;;;2.40;;
65375;SDS011;51976;47.332;9.404;2024-03-22T05:12:42;4.43;;;2.10;;
65375;SDS011;51976;47.332;9.404;2024-03-22T05:15:08;3.22;;;2.10;;
65375;SDS011;51976;47.332;9.404;2024-03-22T05:17:33;3.03;;;1.88;;
65375;SDS011;51976;47.332;9.404;2024-03-22T05:19:59;2.90;;;1.80;;
65375;SDS011;51976;47.332;9.404;2024-03-22T05:22:24;6.68;;;3.42;;
65375;SDS011;51976;47.332;9.404;2024-03-22T05:24:50;2.70;;;2.05;;
65375;SDS011;51976;47.332;9.404;2024-03-22T05:27:16;3.30;;;1.88;;
65375;SDS011;51976;47.332;9.404;2024-03-22T05:29:42;4.45;;;2.53;;
65375;SDS011;51976;47.332;9.404;2024-03-22T05:32:07;7.07;;;2.92;;
65375;SDS011;51976;47.332;9.404;2024-03-22T05:34:33;6.68;;;3.67;;
65375;SDS011;51976;47.332;9.404;2024-03-22T05:36:58;4.32;;;2.60;;
65375;SDS011;51976;47.332;9.404;2024-03-22T05:39:24;5.63;;;3.50;;
65375;SDS011;51976;47.332;9.404;2024-03-22T05:41:49;6.25;;;2.75;;
65375;SDS011;51976;47.332;9.404;2024-03-22T05:44:15;4.80;;;3.03;;
65375;SDS011;51976;47.332;9.404;2024-03-22T05:46:40;5.40;;;2.95;;
65375;SDS011;51976;47.332;9.404;2024-03-22T05:49:05;5.00;;;2.40;;
65375;SDS011;51976;47.332;9.404;2024-03-22T05:51:31;4.28;;;2.40;;
65375;SDS011;51976;47.332;9.404;2024-03-22T05:53:56;5.95;;;2.78;;
65375;SDS011;51976;47.332;9.404;2024-03-22T05:56:22;9.68;;;3.20;;
65375;SDS011;51976;47.332;9.404;2024-03-22T05:58:48;6.68;;;3.25;;
65375;SDS011;51976;47.332;9.404;2024-03-22T06:01:13;3.97;;;2.67;;
65375;SDS011;51976;47.332;9.404;2024-03-22T06:03:38;4.28;;;2.45;;
65375;SDS011;51976;47.332;9.404;2024-03-22T06:06:04;6.85;;;2.67;;
65375;SDS011;51976;47.332;9.404;2024-03-22T06:08:29;4.32;;;2.45;;
65375;SDS011;51976;47.332;9.404;2024-03-22T06:10:59;5.82;;;2.72;;
65375;SDS011;51976;47.332;9.404;2024-03-22T06:13:24;5.72;;;2.10;;
65375;SDS011;51976;47.332;9.404;2024-03-22T06:15:50;3.92;;;2.05;;
65375;SDS011;51976;47.332;9.404;2024-03-22T06:18:16;7.45;;;2.20;;
65375;SDS011;51976;47.332;9.404;2024-03-22T06:20:42;4.65;;;1.88;;
65375;SDS011;51976;47.332;9.404;2024-03-22T06:23:08;2.72;;;1.73;;
65375;SDS011;51976;47.332;9.404;2024-03-22T06:25:34;3.90;;;2.05;;
65375;SDS011;51976;47.332;9.404;2024-03-22T06:27:59;3.22;;;2.35;;
65375;SDS011;51976;47.332;9.404;2024-03-22T06:30:25;4.07;;;2.03;;
65375;SDS011;51976;47.332;9.404;2024-03-22T06:32:50;3.28;;;2.20;;
65375;SDS011;51976;47.332;9.404;2024-03-22T06:35:16;4.20;;;1.90;;
65375;SDS011;51976;47.332;9.404;2024-03-22T06:37:41;5.72;;;2.15;;
65375;SDS011;51976;47.332;9.404;2024-03-22T06:40:07;3.42;;;2.15;;
65375;SDS011;51976;47.332;9.404;2024-03-22T06:42:33;3.78;;;2.25;;
65375;SDS011;51976;47.332;9.404;2024-03-22T06:44:58;5.15;;;2.65;;
65375;SDS011;51976;47.332;9.404;2024-03-22T06:47:23;6.30;;;2.08;;
65375;SDS011;51976;47.332;9.404;2024-03-22T06:49:49;6.53;;;2.30;;
65375;SDS011;51976;47.332;9.404;2024-03-22T06:52:15;4.70;;;2.38;;
65375;SDS011;51976;47.332;9.404;2024-03-22T06:54:40;5.20;;;2.30;;
65375;SDS011;51976;47.332;9.404;2024-03-22T06:57:06;3.47;;;2.38;;
65375;SDS011;51976;47.332;9.404;2024-03-22T06:59:32;5.32;;;2.03;;
65375;SDS011;51976;47.332;9.404;2024-03-22T07:01:57;5.10;;;2.45;;
65375;SDS011;51976;47.332;9.404;2024-03-22T07:04:22;3.65;;;2.08;;
65375;SDS011;51976;47.332;9.404;2024-03-22T07:06:48;5.82;;;2.00;;
65375;SDS011;51976;47.332;9.404;2024-03-22T07:09:13;4.80;;;1.85;;
65375;SDS011;51976;47.332;9.404;2024-03-22T07:11:39;4.43;;;1.52;;
65375;SDS011;51976;47.332;9.404;2024-03-22T07:14:05;4.65;;;2.78;;
65375;SDS011;51976;47.332;9.404;2024-03-22T07:16:31;3.83;;;2.10;;
65375;SDS011;51976;47.332;9.404;2024-03-22T07:18:58;6.75;;;2.15;;
65375;SDS011;51976;47.332;9.404;2024-03-22T07:21:23;4.95;;;2.33;;
65375;SDS011;51976;47.332;9.404;2024-03-22T07:23:49;2.83;;;1.92;;
65375;SDS011;51976;47.332;9.404;2024-03-22T07:26:14;3.13;;;2.13;;
65375;SDS011;51976;47.332;9.404;2024-03-22T07:28:40;6.72;;;2.30;;
65375;SDS011;51976;47.332;9.404;2024-03-22T07:31:06;5.85;;;2.28;;
65375;SDS011;51976;47.332;9.404;2024-03-22T07:33:31;7.32;;;2.58;;
65375;SDS011;51976;47.332;9.404;2024-03-22T07:36:01;2.55;;;1.80;;
65375;SDS011;51976;47.332;9.404;2024-03-22T07:38:27;2.58;;;1.55;;
65375;SDS011;51976;47.332;9.404;2024-03-22T07:40:53;3.88;;;1.85;;
65375;SDS011;51976;47.332;9.404;2024-03-22T07:43:19;3.30;;;1.85;;
65375;SDS011;51976;47.332;9.404;2024-03-22T07:45:45;3.03;;;1.85;;
65375;SDS011;51976;47.332;9.404;2024-03-22T07:48:11;2.90;;;1.50;;
65375;SDS011;51976;47.332;9.404;2024-03-22T07:50:37;2.78;;;1.10;;
65375;SDS011;51976;47.332;9.404;2024-03-22T07:53:03;2.90;;;1.92;;
65375;SDS011;51976;47.332;9.404;2024-03-22T07:55:28;2.85;;;1.48;;
65375;SDS011;51976;47.332;9.404;2024-03-22T07:57:55;7.72;;;1.20;;
65375;SDS011;51976;47.332;9.404;2024-03-22T08:00:23;5.30;;;1.38;;
65375;SDS011;51976;47.332;9.404;2024-03-22T08:02:50;3.78;;;2.22;;
65375;SDS011;51976;47.332;9.404;2024-03-22T08:05:16;10.20;;;4.35;;
65375;SDS011;51976;47.332;9.404;2024-03-22T08:07:42;5.65;;;2.92;;
65375;SDS011;51976;47.332;9.404;2024-03-22T08:10:09;4.22;;;2.58;;
65375;SDS011;51976;47.332;9.404;2024-03-22T08:12:35;7.10;;;3.75;;
65375;SDS011;51976;47.332;9.404;2024-03-22T08:15:01;5.57;;;3.47;;
65375;SDS011;51976;47.332;9.404;2024-03-22T08:17:27;11.90;;;4.05;;
65375;SDS011;51976;47.332;9.404;2024-03-22T08:19:52;6.65;;;2.90;;
65375;SDS011;51976;47.332;9.404;2024-03-22T08:22:18;6.78;;;3.40;;
65375;SDS011;51976;47.332;9.404;2024-03-22T08:24:43;5.72;;;2.50;;
65375;SDS011;51976;47.332;9.404;2024-03-22T08:27:08;4.72;;;2.28;;
65375;SDS011;51976;47.332;9.404;2024-03-22T08:29:34;4.13;;;2.03;;
65375;SDS011;51976;47.332;9.404;2024-03-22T08:32:00;3.08;;;2.00;;
65375;SDS011;51976;47.332;9.404;2024-03-22T08:34:29;2.85;;;0.95;;
65375;SDS011;51976;47.332;9.404;2024-03-22T08:36:57;5.55;;;3.05;;
65375;SDS011;51976;47.332;9.404;2024-03-22T08:39:23;5.10;;;3.08;;
65375;SDS011;51976;47.332;9.404;2024-03-22T08:41:49;6.43;;;3.05;;
65375;SDS011;51976;47.332;9.404;2024-03-22T08:44:16;6.85;;;3.13;;
65375;SDS011;51976;47.332;9.404;2024-03-22T08:46:41;3.97;;;1.42;;
65375;SDS011;51976;47.332;9.404;2024-03-22T08:49:07;9.48;;;2.90;;
65375;SDS011;51976;47.332;9.404;2024-03-22T08:51:32;7.93;;;2.80;;
65375;SDS011;51976;47.332;9.404;2024-03-22T08:53:58;8.70;;;3.15;;
65375;SDS011;51976;47.332;9.404;2024-03-22T08:56:24;7.18;;;3.40;;
65375;SDS011;51976;47.332;9.404;2024-03-22T08:58:49;6.10;;;3.05;;
65375;SDS011;51976;47.332;9.404;2024-03-22T09:01:15;3.03;;;1.58;;
65375;SDS011;51976;47.332;9.404;2024-03-22T09:03:40;5.80;;;2.47;;
65375;SDS011;51976;47.332;9.404;2024-03-22T09:06:06;4.15;;;2.55;;
65375;SDS011;51976;47.332;9.404;2024-03-22T09:08:31;4.53;;;2.17;;
65375;SDS011;51976;47.332;9.404;2024-03-22T09:10:58;2.65;;;1.38;;
65375;SDS011;51976;47.332;9.404;2024-03-22T09:13:24;3.80;;;1.00;;
65375;SDS011;51976;47.332;9.404;2024-03-22T09:15:55;3.40;;;1.73;;
65375;SDS011;51976;47.332;9.404;2024-03-22T09:18:24;4.07;;;1.50;;
65375;SDS011;51976;47.332;9.404;2024-03-22T09:20:51;4.80;;;1.73;;
65375;SDS011;51976;47.332;9.404;2024-03-22T09:23:18;7.22;;;1.80;;
65375;SDS011;51976;47.332;9.404;2024-03-22T09:25:43;5.38;;;1.25;;
65375;SDS011;51976;47.332;9.404;2024-03-22T09:28:08;2.15;;;1.00;;
65375;SDS011;51976;47.332;9.404;2024-03-22T09:30:37;2.75;;;1.13;;
65375;SDS011;51976;47.332;9.404;2024-03-22T09:33:03;9.82;;;1.02;;
65375;SDS011;51976;47.332;9.404;2024-03-22T09:35:29;5.50;;;0.75;;
65375;SDS011;51976;47.332;9.404;2024-03-22T09:37:57;2.83;;;0.77;;
65375;SDS011;51976;47.332;9.404;2024-03-22T09:40:22;1.90;;;1.10;;
65375;SDS011;51976;47.332;9.404;2024-03-22T09:42:49;2.08;;;1.00;;
65375;SDS011;51976;47.332;9.404;2024-03-22T09:45:18;2.67;;;1.17;;
65375;SDS011;51976;47.332;9.404;2024-03-22T09:47:45;2.15;;;1.23;;
65375;SDS011;51976;47.332;9.404;2024-03-22T09:50:13;3.15;;;1.08;;
65375;SDS011;51976;47.332;9.404;2024-03-22T09:52:39;2.80;;;1.20;;
65375;SDS011;51976;47.332;9.404;2024-03-22T09:55:07;2.53;;;1.25;;
65375;SDS011;51976;47.332;9.404;2024-03-22T09:57:52;4.22;;;1.23;;
65375;SDS011;51976;47.332;9.404;2024-03-22T10:00:21;4.68;;;1.00;;
65375;SDS011;51976;47.332;9.404;2024-03-22T10:02:51;1.88;;;0.80;;
65375;SDS011;51976;47.332;9.404;2024-03-22T10:05:17;2.45;;;0.90;;
65375;SDS011;51976;47.332;9.404;2024-03-22T10:07:43;1.75;;;0.90;;
65375;SDS011;51976;47.332;9.404;2024-03-22T10:10:09;5.90;;;1.50;;
65375;SDS011;51976;47.332;9.404;2024-03-22T10:12:39;5.15;;;1.02;;
65375;SDS011;51976;47.332;9.404;2024-03-22T10:15:06;2.25;;;1.00;;
65375;SDS011;51976;47.332;9.404;2024-03-22T10:17:38;5.07;;;1.13;;
65375;SDS011;51976;47.332;9.404;2024-03-22T10:20:05;4.28;;;0.90;;
65375;SDS011;51976;47.332;9.404;2024-03-22T10:22:42;3.78;;;0.88;;
65375;SDS011;51976;47.332;9.404;2024-03-22T10:25:11;3.42;;;0.93;;
65375;SDS011;51976;47.332;9.404;2024-03-22T10:27:39;7.05;;;1.52;;
65375;SDS011;51976;47.332;9.404;2024-03-22T10:30:07;2.70;;;0.70;;
65375;SDS011;51976;47.332;9.404;2024-03-22T10:32:35;4.70;;;0.90;;
65375;SDS011;51976;47.332;9.404;2024-03-22T10:35:03;4.75;;;0.80;;
65375;SDS011;51976;47.332;9.404;2024-03-22T10:37:32;1.17;;;0.50;;
65375;SDS011;51976;47.332;9.404;2024-03-22T10:40:00;2.80;;;0.90;;
65375;SDS011;51976;47.332;9.404;2024-03-22T10:42:34;2.70;;;0.70;;
65375;SDS011;51976;47.332;9.404;2024-03-22T10:45:01;2.28;;;0.70;;
65375;SDS011;51976;47.332;9.404;2024-03-22T10:47:29;1.75;;;0.77;;
65375;SDS011;51976;47.332;9.404;2024-03-22T10:50:05;1.65;;;0.63;;
65375;SDS011;51976;47.332;9.404;2024-03-22T10:52:39;2.15;;;0.95;;
65375;SDS011;51976;47.332;9.404;2024-03-22T10:55:12;1.27;;;0.77;;
65375;SDS011;51976;47.332;9.404;2024-03-22T10:57:46;3.80;;;0.60;;
65375;SDS011;51976;47.332;9.404;2024-03-22T11:00:12;1.83;;;0.70;;
65375;SDS011;51976;47.332;9.404;2024-03-22T11:02:42;1.83;;;0.80;;
65375;SDS011;51976;47.332;9.404;2024-03-22T11:05:15;1.23;;;0.55;;
65375;SDS011;51976;47.332;9.404;2024-03-22T11:07:43;5.78;;;0.60;;
65375;SDS011;51976;47.332;9.404;2024-03-22T11:10:11;2.10;;;0.50;;
65375;SDS011;51976;47.332;9.404;2024-03-22T11:12:37;1.08;;;0.52;;
65375;SDS011;51976;47.332;9.404;2024-03-22T11:15:04;2.13;;;1.40;;
65375;SDS011;51976;47.332;9.404;2024-03-22T11:17:30;1.55;;;0.73;;
65375;SDS011;51976;47.332;9.404;2024-03-22T11:19:55;1.88;;;0.85;;
65375;SDS011;51976;47.332;9.404;2024-03-22T11:22:21;3.45;;;0.93;;
65375;SDS011;51976;47.332;9.404;2024-03-22T11:24:46;3.75;;;1.30;;
65375;SDS011;51976;47.332;9.404;2024-03-22T11:27:11;3.65;;;1.73;;
65375;SDS011;51976;47.332;9.404;2024-03-22T11:29:37;1.52;;;0.80;;
65375;SDS011;51976;47.332;9.404;2024-03-22T11:32:09;2.17;;;0.77;;
65375;SDS011;51976;47.332;9.404;2024-03-22T11:34:35;4.82;;;2.50;;
65375;SDS011;51976;47.332;9.404;2024-03-22T11:37:01;3.78;;;1.50;;
65375;SDS011;51976;47.332;9.404;2024-03-22T11:39:27;2.08;;;0.88;;
65375;SDS011;51976;47.332;9.404;2024-03-22T11:41:52;11.25;;;2.55;;
65375;SDS011;51976;47.332;9.404;2024-03-22T11:44:18;9.82;;;5.95;;
65375;SDS011;51976;47.332;9.404;2024-03-22T11:46:44;2.50;;;1.02;;
65375;SDS011;51976;47.332;9.404;2024-03-22T11:49:10;4.50;;;2.50;;
65375;SDS011;51976;47.332;9.404;2024-03-22T11:51:36;6.20;;;3.78;;
65375;SDS011;51976;47.332;9.404;2024-03-22T11:54:05;2.33;;;1.20;;
65375;SDS011;51976;47.332;9.404;2024-03-22T11:56:34;3.85;;;1.75;;
65375;SDS011;51976;47.332;9.404;2024-03-22T11:59:00;5.82;;;2.58;;
65375;SDS011;51976;47.332;9.404;2024-03-22T12:01:27;3.28;;;2.05;;
65375;SDS011;51976;47.332;9.404;2024-03-22T12:03:53;3.67;;;1.63;;
65375;SDS011;51976;47.332;9.404;2024-03-22T12:06:19;5.75;;;3.10;;
65375;SDS011;51976;47.332;9.404;2024-03-22T12:08:46;7.00;;;4.00;;
65375;SDS011;51976;47.332;9.404;2024-03-22T12:11:12;1.77;;;1.20;;
65375;SDS011;51976;47.332;9.404;2024-03-22T12:13:39;2.28;;;1.25;;
65375;SDS011;51976;47.332;9.404;2024-03-22T12:16:04;5.80;;;3.10;;
65375;SDS011;51976;47.332;9.404;2024-03-22T12:18:30;2.63;;;1.30;;
65375;SDS011;51976;47.332;9.404;2024-03-22T12:20:56;4.75;;;1.27;;
65375;SDS011;51976;47.332;9.404;2024-03-22T12:23:22;4.07;;;1.83;;
65375;SDS011;51976;47.332;9.404;2024-03-22T12:25:49;2.22;;;1.25;;
65375;SDS011;51976;47.332;9.404;2024-03-22T12:28:16;3.40;;;1.70;;
65375;SDS011;51976;47.332;9.404;2024-03-22T12:30:41;5.82;;;1.45;;
65375;SDS011;51976;47.332;9.404;2024-03-22T12:33:08;2.88;;;1.02;;
65375;SDS011;51976;47.332;9.404;2024-03-22T12:35:36;3.17;;;1.90;;
65375;SDS011;51976;47.332;9.404;2024-03-22T12:38:02;4.80;;;0.82;;
65375;SDS011;51976;47.332;9.404;2024-03-22T12:40:28;3.17;;;1.58;;
65375;SDS011;51976;47.332;9.404;2024-03-22T12:42:55;1.75;;;0.40;;
65375;SDS011;51976;47.332;9.404;2024-03-22T12:45:21;4.45;;;1.58;;
65375;SDS011;51976;47.332;9.404;2024-03-22T12:47:47;2.97;;;1.80;;
65375;SDS011;51976;47.332;9.404;2024-03-22T12:50:13;2.15;;;1.00;;
65375;SDS011;51976;47.332;9.404;2024-03-22T12:52:39;2.17;;;0.70;;
65375;SDS011;51976;47.332;9.404;2024-03-22T12:55:05;2.65;;;0.50;;
65375;SDS011;51976;47.332;9.404;2024-03-22T12:57:32;1.55;;;0.45;;
65375;SDS011;51976;47.332;9.404;2024-03-22T12:59:58;1.35;;;0.60;;
65375;SDS011;51976;47.332;9.404;2024-03-22T13:02:25;1.85;;;0.80;;
65375;SDS011;51976;47.332;9.404;2024-03-22T13:04:51;4.20;;;0.65;;
65375;SDS011;51976;47.332;9.404;2024-03-22T13:07:18;2.92;;;0.73;;
65375;SDS011;51976;47.332;9.404;2024-03-22T13:09:45;2.17;;;0.73;;
65375;SDS011;51976;47.332;9.404;2024-03-22T13:12:12;1.45;;;0.60;;
65375;SDS011;51976;47.332;9.404;2024-03-22T13:14:38;3.38;;;0.77;;
65375;SDS011;51976;47.332;9.404;2024-03-22T13:17:04;2.83;;;1.02;;
65375;SDS011;51976;47.332;9.404;2024-03-22T13:19:30;5.15;;;1.10;;
65375;SDS011;51976;47.332;9.404;2024-03-22T13:21:55;1.15;;;0.80;;
65375;SDS011;51976;47.332;9.404;2024-03-22T13:24:21;1.58;;;0.75;;
65375;SDS011;51976;47.332;9.404;2024-03-22T13:26:47;4.82;;;0.73;;
65375;SDS011;51976;47.332;9.404;2024-03-22T13:29:15;4.88;;;0.90;;
65375;SDS011;51976;47.332;9.404;2024-03-22T13:31:41;2.90;;;0.88;;
65375;SDS011;51976;47.332;9.404;2024-03-22T13:34:07;3.75;;;1.10;;
65375;SDS011;51976;47.332;9.404;2024-03-22T13:36:33;5.15;;;1.08;;
65375;SDS011;51976;47.332;9.404;2024-03-22T13:38:59;2.50;;;1.00;;
65375;SDS011;51976;47.332;9.404;2024-03-22T13:41:24;1.83;;;0.90;;
65375;SDS011;51976;47.332;9.404;2024-03-22T13:43:53;3.42;;;1.00;;
65375;SDS011;51976;47.332;9.404;2024-03-22T13:46:19;2.50;;;1.27;;
65375;SDS011;51976;47.332;9.404;2024-03-22T13:48:44;1.85;;;1.08;;
65375;SDS011;51976;47.332;9.404;2024-03-22T13:51:10;1.70;;;1.10;;
65375;SDS011;51976;47.332;9.404;2024-03-22T13:53:35;3.75;;;0.88;;
65375;SDS011;51976;47.332;9.404;2024-03-22T13:56:01;2.40;;;1.45;;
65375;SDS011;51976;47.332;9.404;2024-03-22T13:58:28;6.45;;;1.48;;
65375;SDS011;51976;47.332;9.404;2024-03-22T14:00:56;3.60;;;1.63;;
65375;SDS011;51976;47.332;9.404;2024-03-22T14:03:22;2.65;;;1.73;;
65375;SDS011;51976;47.332;9.404;2024-03-22T14:05:48;4.88;;;2.22;;
65375;SDS011;51976;47.332;9.404;2024-03-22T14:08:14;3.45;;;1.35;;
65375;SDS011;51976;47.332;9.404;2024-03-22T14:10:39;2.63;;;1.58;;
65375;SDS011;51976;47.332;9.404;2024-03-22T14:13:04;2.05;;;1.38;;
65375;SDS011;51976;47.332;9.404;2024-03-22T14:15:32;3.22;;;1.10;;
65375;SDS011;51976;47.332;9.404;2024-03-22T14:18:00;3.22;;;1.10;;
65375;SDS011;51976;47.332;9.404;2024-03-22T14:20:25;2.67;;;1.45;;
65375;SDS011;51976;47.332;9.404;2024-03-22T14:22:51;3.08;;;1.30;;
65375;SDS011;51976;47.332;9.404;2024-03-22T14:25:18;2.58;;;1.50;;
65375;SDS011;51976;47.332;9.404;2024-03-22T14:27:44;2.35;;;1.23;;
65375;SDS011;51976;47.332;9.404;2024-03-22T14:30:11;2.35;;;1.10;;
65375;SDS011;51976;47.332;9.404;2024-03-22T14:32:39;1.35;;;0.80;;
65375;SDS011;51976;47.332;9.404;2024-03-22T14:35:06;2.85;;;1.23;;
65375;SDS011;51976;47.332;9.404;2024-03-22T14:37:32;3.10;;;1.40;;
65375;SDS011;51976;47.332;9.404;2024-03-22T14:39:58;3.90;;;1.20;;
65375;SDS011;51976;47.332;9.404;2024-03-22T14:42:24;4.43;;;1.15;;